Time;durP1;ratioP1;P1;durP2;ratioP2;P2;SDS_P1;SDS_P2;PMS_P1;PMS_P2;Temp;Humidity;BMP_temperature;BMP_pressure;BME280_temperature;BME280_humidity;BME280_pressure;Samples;Min_cycle;Max_cycle;Signal;HPM_P1;HPM_P2
2021/01/12 00:00:54;;;;;;;37.63;21.60;;;;;;;-1.34;65.32;96704.66;1791224;79;21048;-52
2021/01/12 00:03:22;;;;;;;44.88;24.40;;;;;;;-1.28;65.18;96704.12;1787567;79;21528;-52
2021/01/12 00:05:51;;;;;;;42.08;23.38;;;;;;;-1.24;64.97;96698.10;1779660;80;21126;-52
2021/01/12 00:08:18;;;;;;;47.20;24.12;;;;;;;-1.25;64.81;96704.05;1759685;80;21137;-53
2021/01/12 00:10:48;;;;;;;41.55;24.00;;;;;;;-1.36;64.67;96697.94;1739290;81;21658;-52
2021/01/12 00:13:15;;;;;;;47.75;24.35;;;;;;;-1.46;64.91;96701.11;1756303;81;21153;-53
2021/01/12 00:15:43;;;;;;;47.80;26.57;;;;;;;-1.51;64.95;96697.83;1772858;80;21208;-52
2021/01/12 00:18:11;;;;;;;46.30;27.15;;;;;;;-1.51;64.97;96697.83;1772506;80;21133;-52
2021/01/12 00:20:40;;;;;;;51.30;27.75;;;;;;;-1.47;64.89;96696.88;1770470;80;21138;-52
2021/01/12 00:23:08;;;;;;;48.13;26.62;;;;;;;-1.44;64.74;96692.17;1772447;80;21140;-52
2021/01/12 00:25:38;;;;;;;56.60;29.18;;;;;;;-1.44;64.79;96686.64;1763359;80;21136;-52
2021/01/12 00:28:05;;;;;;;55.35;29.20;;;;;;;-1.44;64.82;96685.81;1783070;80;21269;-52
2021/01/12 00:30:33;;;;;;;51.30;28.45;;;;;;;-1.51;64.72;96683.83;1777985;80;21077;-51
2021/01/12 00:33:01;;;;;;;58.98;30.05;;;;;;;-1.59;65.14;96687.80;1785538;80;21100;-51
2021/01/12 00:35:28;;;;;;;51.77;28.80;;;;;;;-1.67;65.48;96679.05;1776029;80;21686;-52
2021/01/12 00:37:56;;;;;;;52.45;29.23;;;;;;;-1.67;66.06;96678.22;1751700;81;21135;-52
2021/01/12 00:40:23;;;;;;;52.05;30.00;;;;;;;-1.69;66.43;96673.60;1752121;81;21064;-51
2021/01/12 00:42:51;;;;;;;51.83;29.27;;;;;;;-1.87;66.96;96679.45;1760654;81;21157;-53
2021/01/12 00:45:18;;;;;;;59.25;32.50;;;;;;;-2.08;67.63;96679.43;1776218;79;21168;-51
2021/01/12 00:47:46;;;;;;;60.70;32.25;;;;;;;-2.17;67.81;96679.63;1747964;81;21089;-50
2021/01/12 00:50:14;;;;;;;60.35;33.83;;;;;;;-2.10;67.82;96677.36;1743033;81;21137;-51
2021/01/12 00:52:42;;;;;;;65.62;37.50;;;;;;;-1.99;67.85;96678.85;1753417;81;21189;-51
2021/01/12 00:55:12;;;;;;;66.95;36.63;;;;;;;-1.95;67.92;96678.77;1747998;80;21171;-51
2021/01/12 00:57:39;;;;;;;62.58;33.70;;;;;;;-1.91;67.73;96669.37;1742550;81;21133;-51
2021/01/12 01:00:11;;;;;;;58.05;31.70;;;;;;;-1.89;67.57;96667.66;1762917;81;21140;-51
2021/01/12 01:02:39;;;;;;;55.08;30.12;;;;;;;-1.94;68.37;96667.73;1758252;81;21102;-51
2021/01/12 01:05:09;;;;;;;56.47;31.40;;;;;;;-1.93;68.03;96663.48;1728606;81;22123;-51
2021/01/12 01:07:36;;;;;;;54.20;31.05;;;;;;;-1.95;68.05;96655.87;1753853;81;21098;-51
2021/01/12 01:10:06;;;;;;;54.35;31.07;;;;;;;-1.89;68.19;96660.85;1772876;80;21149;-52
2021/01/12 01:12:34;;;;;;;58.85;32.42;;;;;;;-1.83;67.70;96651.42;1774279;80;21631;-52
2021/01/12 01:15:03;;;;;;;51.35;29.85;;;;;;;-1.80;66.89;96657.72;1751954;81;21065;-52
2021/01/12 01:17:33;;;;;;;59.23;33.48;;;;;;;-1.79;67.33;96650.47;1773831;80;21414;-52
2021/01/12 01:20:00;;;;;;;55.85;31.57;;;;;;;-1.81;66.86;96647.13;1736687;80;21147;-52
2021/01/12 01:22:28;;;;;;;59.83;32.00;;;;;;;-1.80;66.57;96651.36;1767713;80;21192;-51
2021/01/12 01:24:58;;;;;;;59.15;31.70;;;;;;;-1.80;66.37;96647.55;1753304;80;21184;-52
2021/01/12 01:27:25;;;;;;;56.28;30.25;;;;;;;-1.76;66.19;96642.78;1730435;82;21165;-52
2021/01/12 01:29:53;;;;;;;54.50;32.20;;;;;;;-1.73;66.36;96642.31;1757255;81;23557;-52
2021/01/12 01:32:20;;;;;;;54.00;31.80;;;;;;;-1.65;66.03;96643.84;1778369;80;21632;-51
2021/01/12 01:34:48;;;;;;;56.98;30.68;;;;;;;-1.61;65.86;96641.62;1777221;80;21160;-51
2021/01/12 01:37:16;;;;;;;55.73;30.80;;;;;;;-1.62;65.76;96634.43;1777455;80;21105;-51
2021/01/12 01:39:44;;;;;;;61.73;34.33;;;;;;;-1.61;65.92;96628.48;1772933;80;21728;-52
2021/01/12 01:42:11;;;;;;;52.23;30.68;;;;;;;-1.60;65.94;96626.31;1773417;80;21354;-51
2021/01/12 01:44:39;;;;;;;54.40;29.25;;;;;;;-1.55;65.80;96626.23;1753912;80;21204;-52
2021/01/12 01:47:07;;;;;;;54.30;29.40;;;;;;;-1.52;65.75;96621.08;1753497;81;21493;-51
2021/01/12 01:49:34;;;;;;;50.35;28.52;;;;;;;-1.46;65.31;96614.99;1748025;80;21148;-52
2021/01/12 01:52:02;;;;;;;55.00;28.47;;;;;;;-1.48;65.14;96620.15;1746452;81;21486;-52
2021/01/12 01:54:29;;;;;;;47.83;27.42;;;;;;;-1.53;65.33;96620.66;1783312;80;21406;-52
2021/01/12 01:56:59;;;;;;;48.35;27.67;;;;;;;-1.65;65.48;96619.67;1768047;80;21584;-52
2021/01/12 01:59:29;;;;;;;47.75;29.12;;;;;;;-1.81;65.64;96617.47;1747194;80;21126;-52
2021/01/12 02:01:56;;;;;;;53.30;29.12;;;;;;;-1.85;65.76;96615.84;1758721;80;21183;-52
2021/01/12 02:04:30;;;;;;;50.50;29.30;;;;;;;-1.83;65.92;96611.99;1767860;80;21211;-52
2021/01/12 02:06:59;;;;;;;47.48;27.25;;;;;;;-1.79;65.93;96613.17;1763011;80;21385;-51
2021/01/12 02:09:49;;;;;;;52.13;29.50;;;;;;;-1.79;66.00;96614.45;1745380;81;21613;-52
2021/01/12 02:12:47;;;;;;;50.12;28.70;;;;;;;-1.75;65.96;96603.32;1743815;80;21189;-52
2021/01/12 02:15:19;;;;;;;48.45;27.65;;;;;;;-1.74;65.77;96598.64;1780649;80;21184;-52
2021/01/12 02:17:47;;;;;;;52.80;28.80;;;;;;;-1.72;65.64;96598.17;1763582;80;21149;-51
2021/01/12 02:20:16;;;;;;;54.40;28.95;;;;;;;-1.70;65.46;96598.14;1778633;80;21259;-51
2021/01/12 02:22:47;;;;;;;51.08;27.10;;;;;;;-1.73;65.29;96591.43;1737286;81;21512;-51
2021/01/12 02:25:15;;;;;;;48.55;26.77;;;;;;;-1.75;65.20;96599.50;1723899;81;21696;-53
2021/01/12 02:27:44;;;;;;;46.53;26.95;;;;;;;-1.74;65.20;96586.37;1739380;81;21077;-51
2021/01/12 02:30:13;;;;;;;48.50;25.35;;;;;;;-1.72;65.14;96589.71;1768847;80;21108;-51
2021/01/12 02:32:40;;;;;;;40.55;24.45;;;;;;;-1.71;64.97;96583.73;1729889;82;22322;-51
2021/01/12 02:35:10;;;;;;;42.27;24.80;;;;;;;-1.72;64.63;96578.27;1754258;81;21129;-52
2021/01/12 02:37:37;;;;;;;;;;;;;;;-1.74;64.47;96576.20;1754278;81;21149;-52
2021/01/12 02:40:07;;;;;;;40.90;24.72;;;;;;;-1.75;64.21;96577.88;1752965;81;20604;-51
2021/01/12 02:42:35;;;;;;;40.63;25.37;;;;;;;-1.76;64.07;96571.14;1747440;81;21054;-51
2021/01/12 02:45:04;;;;;;;46.60;25.20;;;;;;;-1.77;63.60;96565.64;1748191;81;21393;-53
2021/01/12 02:47:31;;;;;;;41.25;23.00;;;;;;;-1.78;63.16;96567.77;1742344;81;21208;-54
2021/01/12 02:50:02;;;;;;;;;;;;;;;-1.84;63.36;96565.38;1745580;81;21113;-53
2021/01/12 02:52:30;;;;;;;44.03;24.40;;;;;;;-1.87;63.40;96563.73;1760168;81;20241;-52
2021/01/12 02:54:57;;;;;;;46.40;26.50;;;;;;;-1.91;63.39;96567.23;1752108;81;21164;-52
2021/01/12 02:57:25;;;;;;;45.05;25.00;;;;;;;-1.96;62.75;96560.55;1751874;81;21462;-52
2021/01/12 02:59:54;;;;;;;;;;;;;;;-2.07;63.03;96556.98;1756874;81;21566;-52
2021/01/12 03:02:21;;;;;;;50.35;26.90;;;;;;;-2.16;62.77;96554.61;1740694;81;20504;-51
2021/01/12 03:04:49;;;;;;;45.28;25.88;;;;;;;-2.24;63.08;96559.44;1751334;81;21159;-52
2021/01/12 03:07:17;;;;;;;49.70;27.62;;;;;;;-2.28;63.01;96555.71;1769774;80;21157;-52
2021/01/12 03:09:44;;;;;;;50.60;26.57;;;;;;;-2.35;63.13;96546.11;1744103;81;22791;-52
2021/01/12 03:12:12;;;;;;;51.18;26.87;;;;;;;-2.39;63.46;96552.09;1780403;80;21106;-52
2021/01/12 03:14:42;;;;;;;47.88;26.73;;;;;;;-2.39;63.16;96549.56;1772629;80;21145;-51
2021/01/12 03:17:11;;;;;;;48.48;26.45;;;;;;;-2.40;63.34;96551.72;1772992;80;21141;-51
2021/01/12 03:19:40;;;;;;;50.80;27.65;;;;;;;-2.41;63.51;96549.59;1777522;80;21557;-51
2021/01/12 03:22:08;;;;;;;50.15;28.42;;;;;;;-2.42;63.67;96555.55;1781542;80;21441;-51
2021/01/12 03:24:37;;;;;;;50.08;27.07;;;;;;;-2.43;63.64;96555.14;1780280;80;21073;-52
2021/01/12 03:27:05;;;;;;;50.55;26.85;;;;;;;-2.43;63.54;96555.14;1778095;80;21489;-51
2021/01/12 03:29:33;;;;;;;50.40;26.60;;;;;;;-2.44;63.63;96552.62;1785262;80;21145;-50
2021/01/12 03:32:01;;;;;;;48.52;27.58;;;;;;;-2.49;63.77;96537.91;1783633;80;21140;-51
2021/01/12 03:34:29;;;;;;;55.05;29.07;;;;;;;-2.48;64.18;96543.41;1774317;80;21380;-51
2021/01/12 03:36:57;;;;;;;50.38;27.55;;;;;;;-2.48;63.98;96528.98;1754792;81;21169;-51
2021/01/12 03:39:24;;;;;;;58.45;27.85;;;;;;;-2.50;64.03;96525.66;1750677;81;21184;-51
2021/01/12 03:41:52;;;;;;;54.25;28.05;;;;;;;-2.55;63.98;96531.26;1753243;81;21086;-50
2021/01/12 03:44:20;;;;;;;50.10;28.50;;;;;;;-2.64;63.97;96525.91;1778760;80;21145;-51
2021/01/12 03:46:48;;;;;;;57.10;28.05;;;;;;;-2.71;64.07;96525.63;1763038;81;21207;-51
2021/01/12 03:49:16;;;;;;;52.80;27.32;;;;;;;-2.75;64.03;96522.73;1785378;80;21125;-51
2021/01/12 03:51:43;;;;;;;51.88;29.23;;;;;;;-2.77;63.92;96520.66;1770460;80;21072;-51
2021/01/12 03:54:11;;;;;;;54.83;30.97;;;;;;;-2.80;63.81;96519.03;1758660;81;21131;-51
2021/01/12 03:56:38;;;;;;;60.78;31.07;;;;;;;-2.82;63.77;96523.28;1779507;80;21191;-50
2021/01/12 03:59:06;;;;;;;58.60;31.35;;;;;;;-2.81;63.77;96523.70;1786306;80;22041;-51
2021/01/12 04:01:34;;;;;;;69.80;31.77;;;;;;;-2.81;63.63;96523.70;1778958;80;21540;-52
2021/01/12 04:04:03;;;;;;;63.45;30.27;;;;;;;-2.82;63.77;96522.01;1729580;80;21120;-51
2021/01/12 04:06:33;;;;;;;63.92;30.85;;;;;;;-2.85;63.61;96522.50;1768998;81;21596;-53
2021/01/12 04:09:01;;;;;;;50.28;26.05;;;;;;;-2.87;63.30;96518.72;1758421;81;21107;-53
2021/01/12 04:11:30;;;;;;;54.73;27.52;;;;;;;-2.91;63.28;96514.58;1757971;81;21457;-51
2021/01/12 04:13:58;;;;;;;48.42;27.13;;;;;;;-2.98;63.52;96515.13;1756511;81;21187;-52
2021/01/12 04:16:27;;;;;;;49.50;26.15;;;;;;;-2.98;63.64;96520.62;1749966;81;21099;-51
2021/01/12 04:18:55;;;;;;;51.48;26.07;;;;;;;-2.96;63.83;96515.10;1784226;80;21247;-51
2021/01/12 04:21:22;;;;;;;51.30;27.90;;;;;;;-2.89;63.85;96519.19;1780873;80;21073;-51
2021/01/12 04:23:50;;;;;;;51.05;26.87;;;;;;;-2.85;63.90;96512.34;1767268;80;21387;-51
2021/01/12 04:26:18;;;;;;;51.68;26.33;;;;;;;-2.79;63.95;96516.05;1784723;80;21927;-50
2021/01/12 04:28:45;;;;;;;50.90;27.52;;;;;;;-2.74;63.28;96508.34;1781940;80;21064;-51
2021/01/12 04:31:13;;;;;;;53.25;27.95;;;;;;;-2.74;62.86;96514.25;1785529;80;21479;-51
2021/01/12 04:33:41;;;;;;;55.88;28.98;;;;;;;-2.80;62.52;96515.22;1777254;79;21132;-51
2021/01/12 04:36:09;;;;;;;54.27;28.02;;;;;;;-2.84;62.27;96508.52;1748400;80;21502;-51
2021/01/12 04:38:36;;;;;;;53.63;28.15;;;;;;;-2.89;62.22;96514.11;1744594;80;21087;-51
2021/01/12 04:41:03;;;;;;;59.58;28.87;;;;;;;-2.94;62.25;96507.02;1744599;80;21474;-51
2021/01/12 04:43:31;;;;;;;54.73;28.98;;;;;;;-2.95;62.18;96511.68;1753218;80;21116;-51
2021/01/12 04:46:01;;;;;;;53.13;28.00;;;;;;;-2.92;62.25;96515.88;1749586;81;21128;-51
2021/01/12 04:48:29;;;;;;;52.30;27.82;;;;;;;-2.93;62.25;96503.59;1751205;81;26144;-51
2021/01/12 04:51:08;;;;;;;53.13;27.40;;;;;;;-2.98;62.30;96493.55;1754927;80;21064;-51
2021/01/12 04:53:47;;;;;;;55.90;28.30;;;;;;;-3.03;62.49;96499.12;1738632;81;21085;-52
2021/01/12 04:56:16;;;;;;;57.60;29.25;;;;;;;-3.15;62.52;96488.76;1756675;81;21064;-52
2021/01/12 04:58:46;;;;;;;53.38;27.05;;;;;;;-3.18;62.68;96490.08;1747540;81;21065;-51
2021/01/12 05:01:17;;;;;;;51.95;28.40;;;;;;;-3.20;62.73;96488.45;1747681;80;21199;-52
2021/01/12 05:03:48;;;;;;;53.23;28.05;;;;;;;-3.28;62.87;96486.03;1729444;82;21111;-53
2021/01/12 05:06:19;;;;;;;56.63;29.00;;;;;;;-3.36;63.04;96487.87;1735603;82;21123;-51
2021/01/12 05:08:55;;;;;;;52.55;27.32;;;;;;;-3.43;63.26;96484.61;1731238;81;21110;-52
2021/01/12 05:11:27;;;;;;;59.67;29.72;;;;;;;-3.41;63.36;96480.77;1722282;82;21171;-53
2021/01/12 05:14:09;;;;;;;59.40;28.38;;;;;;;-3.40;63.42;96473.14;1731021;82;21379;-53
2021/01/12 05:16:52;;;;;;;49.88;28.15;;;;;;;-3.37;63.36;96478.61;1725950;82;21123;-53
2021/01/12 05:19:22;;;;;;;56.20;27.67;;;;;;;-3.39;63.27;96481.58;1735083;82;21588;-51
2021/01/12 05:21:50;;;;;;;48.38;26.65;;;;;;;-3.44;63.31;96479.11;1735362;81;21135;-51
2021/01/12 05:24:19;;;;;;;54.10;26.15;;;;;;;-3.46;63.37;96473.23;1730445;82;21171;-51
2021/01/12 05:26:48;;;;;;;56.00;28.30;;;;;;;-3.45;63.46;96474.92;1720822;81;21220;-52
2021/01/12 05:29:16;;;;;;;51.65;26.87;;;;;;;-3.43;63.13;96483.34;1722974;82;21199;-52
2021/01/12 05:31:46;;;;;;;50.25;27.73;;;;;;;-3.37;63.02;96486.22;1736465;82;21048;-51
2021/01/12 05:34:16;;;;;;;54.08;27.45;;;;;;;-3.33;62.73;96484.84;1747653;81;21137;-51
2021/01/12 05:36:56;;;;;;;67.95;28.15;;;;;;;-3.34;62.65;96480.66;1760085;81;21133;-50
2021/01/12 05:39:24;;;;;;;52.08;26.52;;;;;;;-3.32;62.62;96480.63;1778525;80;21381;-51
2021/01/12 05:41:54;;;;;;;56.95;27.85;;;;;;;-3.26;62.42;96474.16;1758231;80;21164;-54
2021/01/12 05:44:25;;;;;;;62.00;26.60;;;;;;;-3.21;62.44;96473.66;1740367;81;21069;-51
2021/01/12 05:46:53;;;;;;;50.65;25.35;;;;;;;-3.13;62.16;96463.35;1750299;81;21069;-51
2021/01/12 05:49:24;;;;;;;49.73;27.23;;;;;;;-3.05;61.51;96458.97;1772036;80;21105;-52
2021/01/12 05:51:52;;;;;;;54.18;27.93;;;;;;;-3.03;61.52;96461.04;1764084;80;21371;-52
2021/01/12 05:54:31;;;;;;;58.33;28.57;;;;;;;-3.04;61.39;96461.09;1780052;80;21180;-52
2021/01/12 05:57:01;;;;;;;149.77;76.47;;;;;;;-3.02;61.28;96460.19;1756411;81;21123;-53
2021/01/12 05:59:32;;;;;;;219.87;104.90;;;;;;;-3.02;61.36;96459.36;1769579;80;21108;-51
2021/01/12 06:02:02;;;;;;;83.78;28.98;;;;;;;-2.98;61.47;96459.28;1754480;80;21106;-51
2021/01/12 06:04:30;;;;;;;65.40;30.43;;;;;;;-2.94;60.93;96460.05;1758079;81;21430;-51
2021/01/12 06:06:58;;;;;;;57.45;26.75;;;;;;;-2.91;60.70;96462.94;1754650;81;21196;-51
2021/01/12 06:09:26;;;;;;;58.75;25.65;;;;;;;-2.97;60.56;96449.50;1743859;81;21120;-51
2021/01/12 06:11:55;;;;;;;64.07;29.10;;;;;;;-3.01;60.85;96445.78;1775774;80;21089;-51
2021/01/12 06:14:26;;;;;;;53.58;26.15;;;;;;;-3.02;60.99;96447.94;1757428;81;21526;-51
2021/01/12 06:16:55;;;;;;;45.33;24.40;;;;;;;-3.03;60.84;96438.64;1754649;81;21396;-51
2021/01/12 06:19:27;;;;;;;44.30;23.90;;;;;;;-3.01;61.25;96441.56;1750990;81;21136;-51
2021/01/12 06:22:06;;;;;;;42.95;24.87;;;;;;;-2.98;62.10;96440.23;1785455;80;21061;-52
2021/01/12 06:24:42;;;;;;;84.90;37.35;;;;;;;-2.94;62.73;96436.34;1749750;81;21125;-51
2021/01/12 06:27:22;;;;;;;79.45;35.00;;;;;;;-2.86;63.04;96439.16;1754976;81;21581;-51
2021/01/12 06:29:51;;;;;;;61.20;28.45;;;;;;;-2.80;63.05;96443.27;1770762;80;21145;-51
2021/01/12 06:32:23;;;;;;;53.28;26.42;;;;;;;-2.75;62.55;96434.28;1753260;80;21129;-51
2021/01/12 06:34:56;;;;;;;54.03;25.95;;;;;;;-2.77;62.06;96444.47;1772191;80;21189;-52
2021/01/12 06:37:23;;;;;;;51.28;25.65;;;;;;;-2.84;62.10;96436.14;1777008;80;21124;-52
2021/01/12 06:39:59;;;;;;;49.98;25.88;;;;;;;-2.89;63.04;96432.03;1743679;81;21157;-52
2021/01/12 06:42:31;;;;;;;60.23;28.15;;;;;;;-3.01;62.85;96430.55;1759111;81;21374;-52
2021/01/12 06:44:59;;;;;;;45.52;26.87;;;;;;;-3.08;63.38;96422.22;1775043;80;21160;-51
2021/01/12 06:47:30;;;;;;;61.45;27.40;;;;;;;-2.98;63.36;96435.57;1744114;81;21561;-52
2021/01/12 06:50:11;;;;;;;56.77;28.67;;;;;;;-2.85;63.17;96431.92;1778263;80;21062;-51
2021/01/12 06:52:44;;;;;;;53.33;28.55;;;;;;;-2.74;62.91;96432.16;1766510;80;21132;-52
2021/01/12 06:55:14;;;;;;;51.30;28.42;;;;;;;-2.60;62.71;96439.03;1764673;80;22112;-54
2021/01/12 06:57:48;;;;;;;49.13;27.60;;;;;;;-2.54;62.30;96438.91;1754591;81;21145;-51
2021/01/12 07:00:21;;;;;;;49.80;28.27;;;;;;;-2.63;62.12;96427.25;1753647;81;21137;-51
2021/01/12 07:02:57;;;;;;;44.90;27.77;;;;;;;-2.64;62.45;96434.91;1770916;80;21101;-53
2021/01/12 07:05:41;;;;;;;58.40;29.85;;;;;;;-2.55;62.39;96426.24;1773470;80;21169;-53
2021/01/12 07:08:09;;;;;;;54.93;30.43;;;;;;;-2.38;62.17;96428.44;1771945;80;21481;-53
2021/01/12 07:10:46;;;;;;;64.55;33.75;;;;;;;-2.23;61.81;96434.00;1779144;80;21648;-52
2021/01/12 07:13:16;;;;;;;63.48;34.35;;;;;;;-2.17;61.76;96434.31;1781629;80;22991;-51
2021/01/12 07:15:50;;;;;;;54.75;31.40;;;;;;;-2.10;61.92;96426.94;1791323;80;21141;-52
2021/01/12 07:18:22;;;;;;;51.65;30.88;;;;;;;-1.99;61.84;96432.20;1771923;80;21144;-52
2021/01/12 07:20:50;;;;;;;67.40;32.33;;;;;;;-1.85;61.60;96421.27;1753290;80;22257;-52
2021/01/12 07:23:20;;;;;;;53.45;30.00;;;;;;;-1.71;61.33;96420.92;1742501;81;21145;-52
2021/01/12 07:25:48;;;;;;;56.00;28.40;;;;;;;-1.58;60.90;96421.45;1757010;80;21152;-54
2021/01/12 07:28:22;;;;;;;55.20;28.30;;;;;;;-1.50;60.53;96416.59;1774641;80;21125;-50
2021/01/12 07:30:58;;;;;;;48.70;28.52;;;;;;;-1.42;60.20;96410.46;1771661;80;21129;-51
2021/01/12 07:33:28;;;;;;;60.78;29.23;;;;;;;-1.40;60.12;96412.52;1726505;81;21172;-52
2021/01/12 07:35:58;;;;;;;47.00;28.10;;;;;;;-1.35;60.02;96402.64;1749836;81;21577;-52
2021/01/12 07:38:30;;;;;;;44.85;27.40;;;;;;;-1.26;60.02;96407.91;1767946;80;21106;-53
2021/01/12 07:41:00;;;;;;;45.88;26.68;;;;;;;-1.18;59.74;96409.81;1749330;80;21635;-52
2021/01/12 07:43:29;;;;;;;46.80;27.27;;;;;;;-1.12;59.67;96412.20;1777000;80;21573;-52
2021/01/12 07:46:01;;;;;;;48.78;28.87;;;;;;;-1.06;59.48;96414.18;1786667;80;21199;-51
2021/01/12 07:48:30;;;;;;;43.73;25.62;;;;;;;-1.00;59.43;96409.75;1780763;80;21127;-53
2021/01/12 07:51:00;;;;;;;45.00;28.07;;;;;;;-0.88;59.28;96413.66;1762036;80;21061;-52
2021/01/12 07:53:34;;;;;;;46.68;28.30;;;;;;;-0.81;59.15;96411.33;1761102;80;21617;-54
2021/01/12 07:56:03;;;;;;;54.85;27.58;;;;;;;-0.75;59.06;96409.89;1780874;80;21561;-52
2021/01/12 07:58:31;;;;;;;42.45;24.25;;;;;;;-0.72;58.79;96406.44;1681226;81;22152;-55
2021/01/12 08:00:59;;;;;;;42.50;23.20;;;;;;;-0.75;58.74;96400.97;1789521;80;21568;-51
2021/01/12 08:03:29;;;;;;;47.30;26.70;;;;;;;-0.79;59.13;96399.41;1784200;80;21132;-50
2021/01/12 08:06:00;;;;;;;48.15;26.55;;;;;;;-0.76;59.46;96397.19;1786036;80;21514;-52
2021/01/12 08:08:28;;;;;;;57.13;26.85;;;;;;;-0.77;59.98;96392.55;1761643;80;21625;-51
2021/01/12 08:10:56;;;;;;;47.27;27.70;;;;;;;-0.70;60.09;96400.02;1788471;80;21386;-52
2021/01/12 08:13:23;;;;;;;54.20;29.32;;;;;;;-0.60;60.22;96391.22;1754576;80;21491;-53
2021/01/12 08:15:51;;;;;;;49.13;28.70;;;;;;;-0.48;60.06;96387.02;1786651;80;21108;-51
2021/01/12 08:18:21;;;;;;;59.70;28.90;;;;;;;-0.39;60.01;96386.75;1757480;81;21157;-52
2021/01/12 08:20:54;;;;;;;62.13;30.23;;;;;;;-0.42;60.47;96380.92;1777947;80;21209;-51
2021/01/12 08:23:22;;;;;;;60.52;31.15;;;;;;;-0.61;61.13;96374.25;1788006;80;22106;-52
2021/01/12 08:25:49;;;;;;;57.80;31.00;;;;;;;-0.60;61.80;96370.38;1753376;81;21553;-52
2021/01/12 08:28:17;;;;;;;56.95;30.55;;;;;;;-0.22;61.54;96368.83;1771772;80;21641;-51
2021/01/12 08:30:45;;;;;;;57.95;32.50;;;;;;;-0.22;61.54;96368.83;1765070;80;21077;-51
2021/01/12 08:33:38;;;;;;;64.70;31.82;;;;;;;-0.06;61.11;96356.44;1752223;80;21065;-52
2021/01/12 08:36:11;;;;;;;58.00;31.80;;;;;;;0.12;60.99;96368.59;1746003;80;21206;-52
2021/01/12 08:38:40;;;;;;;62.05;31.25;;;;;;;0.39;60.58;96351.95;1779109;80;21149;-52
2021/01/12 08:41:07;;;;;;;60.90;31.48;;;;;;;0.62;59.89;96355.00;1773320;80;21181;-51
2021/01/12 08:43:36;;;;;;;57.85;31.48;;;;;;;0.83;59.21;96347.02;1782047;80;21057;-52
2021/01/12 08:46:06;;;;;;;58.25;32.30;;;;;;;0.83;59.21;96347.02;1777904;80;21063;-52
2021/01/12 08:48:34;;;;;;;60.60;33.73;;;;;;;0.80;59.62;96348.86;1776258;80;22285;-55
2021/01/12 08:51:15;;;;;;;62.62;32.38;;;;;;;0.76;59.78;96346.87;1770714;80;21160;-58
2021/01/12 08:53:46;;;;;;;59.20;31.35;;;;;;;0.74;59.64;96339.71;1777677;80;21072;-61
2021/01/12 08:56:14;;;;;;;59.05;31.62;;;;;;;0.75;59.81;96343.91;1741706;80;21109;-55
2021/01/12 08:58:43;;;;;;;56.60;30.40;;;;;;;0.75;60.00;96340.08;1736463;81;21596;-57
2021/01/12 09:01:14;;;;;;;63.35;32.80;;;;;;;0.74;59.94;96335.88;1739078;81;21412;-55
2021/01/12 09:03:43;;;;;;;65.47;32.25;;;;;;;0.69;59.91;96346.25;1756369;80;21200;-56
2021/01/12 09:06:22;;;;;;;63.85;32.95;;;;;;;0.62;60.28;96337.13;1719761;82;21126;-57
2021/01/12 09:08:51;;;;;;;62.13;31.82;;;;;;;0.59;60.41;96337.68;1725563;81;21588;-57
2021/01/12 09:11:20;;;;;;;55.10;30.50;;;;;;;0.54;60.35;96325.92;1771976;80;21169;-57
2021/01/12 09:13:49;;;;;;;55.20;28.87;;;;;;;0.46;60.75;96329.61;1768279;80;21137;-57
2021/01/12 09:16:20;;;;;;;53.65;29.75;;;;;;;0.47;60.99;96327.00;1757332;80;21564;-56
2021/01/12 09:18:48;;;;;;;52.83;28.83;;;;;;;0.54;60.97;96319.54;1742214;81;21149;-56
2021/01/12 09:21:16;;;;;;;59.75;31.85;;;;;;;0.59;60.80;96321.08;1770000;80;21145;-57
2021/01/12 09:23:44;;;;;;;65.70;30.85;;;;;;;0.58;60.97;96320.71;1684007;81;21145;-56
2021/01/12 09:26:12;;;;;;;56.53;30.08;;;;;;;0.59;61.09;96325.73;1766838;80;21350;-57
2021/01/12 09:28:41;;;;;;;58.63;30.60;;;;;;;0.59;61.12;96309.59;1778913;80;21573;-56
2021/01/12 09:31:13;;;;;;;;;;;;;;;0.62;61.08;96312.86;1784162;80;21133;-56
2021/01/12 09:33:47;;;;;;;60.92;31.12;;;;;;;0.68;61.14;96312.66;1761189;80;20354;-55
2021/01/12 09:36:18;;;;;;;51.28;30.40;;;;;;;0.72;61.24;96306.98;1731404;81;21179;-58
2021/01/12 09:38:49;;;;;;;53.58;29.82;;;;;;;0.84;61.12;96296.77;1709114;82;21430;-57
2021/01/12 09:41:25;;;;;;;48.25;29.05;;;;;;;0.96;61.05;96295.05;1726808;82;21563;-55
2021/01/12 09:43:52;;;;;;;58.63;30.32;;;;;;;1.04;60.71;96290.48;1724721;82;21125;-57
2021/01/12 09:46:25;;;;;;;50.73;29.80;;;;;;;1.10;60.98;96280.47;1718996;82;21160;-55
2021/01/12 09:48:55;;;;;;;55.12;30.02;;;;;;;1.27;60.64;96267.89;1725720;82;21136;-57
2021/01/12 09:51:26;;;;;;;62.00;30.50;;;;;;;1.39;60.53;96271.69;1724565;82;21648;-56
2021/01/12 09:53:55;;;;;;;53.87;30.82;;;;;;;1.52;60.59;96268.66;1726241;82;21143;-57
2021/01/12 09:56:23;;;;;;;52.17;30.72;;;;;;;1.64;60.22;96262.62;1729510;82;21109;-57
2021/01/12 09:58:52;;;;;;;48.02;28.45;;;;;;;1.78;60.06;96258.66;1724728;82;21106;-57
2021/01/12 10:01:21;;;;;;;55.17;31.80;;;;;;;1.90;59.88;96250.47;1727293;82;21553;-56
2021/01/12 10:03:52;;;;;;;52.03;29.10;;;;;;;1.97;59.78;96242.94;1733298;82;21209;-59
2021/01/12 10:06:23;;;;;;;52.35;29.63;;;;;;;2.03;59.73;96245.22;1722761;82;21140;-55
2021/01/12 10:08:50;;;;;;;44.75;27.35;;;;;;;2.08;59.98;96232.23;1751715;81;21568;-55
2021/01/12 10:11:20;;;;;;;;;;;;;;;2.28;59.87;96239.52;1718877;83;21165;-57
2021/01/12 10:13:48;;;;;;;64.05;29.70;;;;;;;2.37;59.75;96228.87;1721109;83;20566;-56
2021/01/12 10:16:23;;;;;;;51.35;29.70;;;;;;;2.43;60.08;96226.48;1718234;82;21218;-55
2021/01/12 10:18:51;;;;;;;50.90;29.75;;;;;;;2.72;59.76;96219.62;1727434;83;21145;-57
2021/01/12 10:21:18;;;;;;;54.70;31.80;;;;;;;3.11;59.02;96210.18;1731868;81;21149;-57
2021/01/12 10:23:46;;;;;;;49.13;29.35;;;;;;;3.41;58.38;96210.45;1732356;81;21080;-57
2021/01/12 10:26:19;;;;;;;62.25;31.10;;;;;;;3.79;57.81;96207.73;1701553;83;21189;-56
2021/01/12 10:28:47;;;;;;;52.05;29.40;;;;;;;4.12;57.12;96204.38;1729892;82;22280;-64
2021/01/12 10:31:20;;;;;;;53.23;30.08;;;;;;;4.44;56.34;96200.63;1727941;82;21228;-57
2021/01/12 10:33:49;;;;;;;52.38;30.65;;;;;;;4.79;55.42;96196.64;1716519;82;21546;-58
2021/01/12 10:36:19;;;;;;;48.78;29.82;;;;;;;5.08;54.63;96200.64;1737555;81;21255;-58
2021/01/12 10:38:47;;;;;;;46.15;28.27;;;;;;;5.34;54.18;96196.63;1755358;81;21558;-56
2021/01/12 10:41:15;;;;;;;47.38;29.27;;;;;;;5.79;53.76;96191.08;1753850;80;21227;-57
2021/01/12 10:43:43;;;;;;;46.50;28.70;;;;;;;6.21;52.84;96178.38;1774099;80;21065;-57
2021/01/12 10:46:13;;;;;;;46.28;28.45;;;;;;;6.61;52.15;96171.65;1713947;81;21597;-56
2021/01/12 10:48:40;;;;;;;43.52;28.62;;;;;;;6.90;51.26;96165.13;1748907;80;21152;-57
2021/01/12 10:51:11;;;;;;;42.13;27.35;;;;;;;6.98;50.84;96159.50;1773916;80;21664;-56
2021/01/12 10:53:41;;;;;;;41.35;27.90;;;;;;;6.99;50.61;96149.09;1782796;80;21435;-57
2021/01/12 10:56:14;;;;;;;38.60;26.10;;;;;;;7.14;50.40;96146.47;1747286;80;21199;-56
2021/01/12 10:58:43;;;;;;;43.92;28.75;;;;;;;7.41;50.02;96138.69;1748488;80;21074;-56
2021/01/12 11:01:21;;;;;;;47.98;29.87;;;;;;;7.63;49.47;96129.09;1716720;82;21168;-56
2021/01/12 11:03:49;;;;;;;43.45;29.25;;;;;;;7.88;49.17;96120.99;1764643;80;21181;-56
2021/01/12 11:06:21;;;;;;;48.28;29.87;;;;;;;8.20;48.56;96125.72;1762408;80;21499;-57
2021/01/12 11:08:54;;;;;;;44.08;29.25;;;;;;;8.34;48.05;96120.44;1748420;81;21608;-57
2021/01/12 11:11:22;;;;;;;44.00;28.85;;;;;;;8.50;47.82;96114.22;1768455;80;21065;-56
2021/01/12 11:13:57;;;;;;;44.65;29.77;;;;;;;8.70;47.33;96108.50;1784998;80;21179;-57
2021/01/12 11:16:21;;;;;;;49.35;30.80;;;;;;;8.77;47.08;96103.71;1722673;81;21597;-58
2021/01/12 11:18:50;;;;;;;52.48;32.15;;;;;;;9.03;46.78;96099.26;1772959;80;21433;-56
2021/01/12 11:21:18;;;;;;;49.23;32.95;;;;;;;9.54;46.05;96100.73;1769614;80;21475;-57
2021/01/12 11:23:47;;;;;;;46.20;31.05;;;;;;;9.83;45.33;96089.47;1754965;81;21472;-57
2021/01/12 11:26:17;;;;;;;49.10;33.30;;;;;;;9.92;45.37;96084.89;1758034;80;21652;-56
2021/01/12 11:28:46;;;;;;;48.75;31.80;;;;;;;9.89;45.53;96076.05;1788264;80;21612;-58
2021/01/12 11:31:20;;;;;;;47.53;31.42;;;;;;;9.78;45.51;96076.03;1755300;81;22198;-57
2021/01/12 11:33:49;;;;;;;50.25;31.75;;;;;;;9.53;46.02;96062.81;1782522;80;21168;-56